Terminal Aerodrome Forecast
Issued by NWS

Home | Current Version | Previous Version | Text Only | Print | Product List | Glossary On
Versions: 1 2 3 4 5 6 7 8 9 10 11 12 13
514
FTUS45 KABQ 221138
TAFGUP
TAF
KGUP 221138Z 2212/2312 07005KT P6SM BKN100
     FM221700 21012G22KT P6SM BKN120
     FM222100 22022G32KT P6SM SCT120
     FM230200 24013KT P6SM SCT200=

USA.gov is the U.S. government's official web portal to all federal, state and local government web resources and services.